createdAt,value
2023-05-13T00:02:12.843Z,99.90
2023-05-13T00:04:48.216Z,99.90
2023-05-13T00:07:16.567Z,99.90
2023-05-13T00:09:44.748Z,99.90
2023-05-13T00:12:16.916Z,99.90
2023-05-13T00:14:45.207Z,99.90
2023-05-13T00:17:14.884Z,99.90
2023-05-13T00:19:43.194Z,99.90
2023-05-13T00:22:11.460Z,99.90
2023-05-13T00:24:39.707Z,99.90
2023-05-13T00:27:08.354Z,99.90
2023-05-13T00:29:36.801Z,99.90
2023-05-13T00:32:06.078Z,99.90
2023-05-13T00:34:35.712Z,99.90
2023-05-13T00:37:06.434Z,99.90
2023-05-13T00:39:34.684Z,99.90
2023-05-13T00:42:04.413Z,99.90
2023-05-13T00:44:32.775Z,99.90
2023-05-13T00:47:01.301Z,99.90
2023-05-13T00:49:29.792Z,99.90
2023-05-13T00:51:59.525Z,99.90
2023-05-13T00:54:29.326Z,99.90
2023-05-13T00:56:59.417Z,99.90
2023-05-13T00:59:30.563Z,99.90
2023-05-13T01:02:08.268Z,99.90
2023-05-13T01:04:45.392Z,99.90
2023-05-13T01:07:24.598Z,99.90
2023-05-13T01:10:02.468Z,99.90
2023-05-13T01:12:33.924Z,99.90
2023-05-13T01:15:06.951Z,99.90
2023-05-13T01:17:48.354Z,99.90
2023-05-13T01:20:19.586Z,99.90
2023-05-13T01:22:49.716Z,99.90
2023-05-13T01:25:18.312Z,99.90
2023-05-13T01:27:47.199Z,99.90
2023-05-13T01:30:18.624Z,99.90
2023-05-13T01:32:47.360Z,99.90
2023-05-13T01:35:18.527Z,99.90
2023-05-13T01:37:50.160Z,99.90
2023-05-13T01:40:31.868Z,99.90
2023-05-13T01:43:05.616Z,99.90
2023-05-13T01:45:34.778Z,99.90
2023-05-13T01:48:03.475Z,99.90
2023-05-13T01:50:42.040Z,99.90
2023-05-13T01:53:12.374Z,99.90
2023-05-13T01:55:40.752Z,99.90
2023-05-13T01:58:09.788Z,99.90
2023-05-13T02:00:38.197Z,99.90
2023-05-13T02:03:06.647Z,99.90
2023-05-13T02:05:35.000Z,99.90
2023-05-13T02:08:08.911Z,99.90
2023-05-13T02:10:40.822Z,99.90
2023-05-13T02:13:09.220Z,99.90
2023-05-13T02:15:37.758Z,99.90
2023-05-13T02:18:06.717Z,99.90
2023-05-13T02:20:34.957Z,99.90
2023-05-13T02:23:03.323Z,99.90
2023-05-13T02:25:31.691Z,99.90
2023-05-13T02:28:02.360Z,99.90
2023-05-13T02:30:30.779Z,99.90
2023-05-13T02:32:59.760Z,99.90
2023-05-13T02:35:29.747Z,99.90
2023-05-13T02:37:58.875Z,99.90
2023-05-13T02:40:28.499Z,99.90
2023-05-13T02:42:57.058Z,99.90
2023-05-13T02:45:36.950Z,99.90
2023-05-13T02:48:05.425Z,99.90
2023-05-13T02:50:34.560Z,99.90
2023-05-13T02:53:02.901Z,99.90
2023-05-13T02:55:33.641Z,99.90
2023-05-13T02:58:02.081Z,99.90
2023-05-13T03:00:30.642Z,99.90
2023-05-13T03:03:00.448Z,99.90
2023-05-13T03:05:29.970Z,99.90
2023-05-13T03:07:58.490Z,99.90
2023-05-13T03:10:27.533Z,99.90
2023-05-13T03:12:56.216Z,99.90
2023-05-13T03:15:24.568Z,99.90
2023-05-13T03:17:52.955Z,99.90
2023-05-13T03:20:23.828Z,99.90
2023-05-13T03:22:52.365Z,99.90
2023-05-13T03:25:21.566Z,99.90
2023-05-13T03:27:55.521Z,99.90
2023-05-13T03:30:26.832Z,99.90
2023-05-13T03:33:03.524Z,99.90
2023-05-13T03:35:33.364Z,99.90
2023-05-13T03:38:01.955Z,99.90
2023-05-13T03:40:30.876Z,99.90
2023-05-13T03:42:59.291Z,99.90
2023-05-13T03:45:27.722Z,99.90
2023-05-13T03:47:59.875Z,99.90
2023-05-13T03:50:28.421Z,99.90
2023-05-13T03:52:58.589Z,99.90
2023-05-13T03:55:27.495Z,99.90
2023-05-13T03:57:56.198Z,99.90
2023-05-13T04:00:24.623Z,99.90
2023-05-13T04:02:53.222Z,99.90
2023-05-13T04:05:22.680Z,99.90
2023-05-13T04:07:51.014Z,99.90
2023-05-13T04:10:20.925Z,99.90
2023-05-13T04:12:49.487Z,99.90
2023-05-13T04:15:18.635Z,99.90
2023-05-13T04:17:48.503Z,99.90
2023-05-13T04:20:17.124Z,99.90
2023-05-13T04:22:45.432Z,99.90
2023-05-13T04:25:15.893Z,99.90
2023-05-13T04:27:47.282Z,99.90
2023-05-13T04:30:23.601Z,99.90
2023-05-13T04:32:52.770Z,99.90
2023-05-13T04:35:21.384Z,99.90
2023-05-13T04:37:54.064Z,99.90
2023-05-13T04:40:23.326Z,99.90
2023-05-13T04:42:55.001Z,99.90
2023-05-13T04:45:30.406Z,99.90
2023-05-13T04:47:58.921Z,99.90
2023-05-13T04:50:27.309Z,99.90
2023-05-13T04:52:56.505Z,99.90
2023-05-13T04:55:27.542Z,99.90
2023-05-13T04:57:59.024Z,99.90
2023-05-13T05:00:27.981Z,99.90
2023-05-13T05:02:56.640Z,99.90
2023-05-13T05:05:25.620Z,99.90
2023-05-13T05:07:54.100Z,99.90
2023-05-13T05:10:23.467Z,99.90
2023-05-13T05:12:55.802Z,99.90
2023-05-13T05:15:26.415Z,99.90
2023-05-13T05:17:58.214Z,99.90
2023-05-13T05:20:26.783Z,99.90
2023-05-13T05:22:59.602Z,99.90
2023-05-13T05:25:29.951Z,99.90
2023-05-13T05:27:58.264Z,99.90
2023-05-13T05:30:28.131Z,99.90
2023-05-13T05:33:02.034Z,99.90
2023-05-13T05:35:30.586Z,99.90
2023-05-13T05:37:59.404Z,99.90
2023-05-13T05:40:27.735Z,99.90
2023-05-13T05:42:56.136Z,99.90
2023-05-13T05:45:24.470Z,99.90
2023-05-13T05:47:55.382Z,99.90
2023-05-13T05:50:23.995Z,99.90
2023-05-13T05:52:53.045Z,99.90
2023-05-13T05:55:21.727Z,99.90
2023-05-13T05:57:50.024Z,99.90
2023-05-13T06:00:19.851Z,99.90
2023-05-13T06:02:48.865Z,99.90
2023-05-13T06:05:19.650Z,99.90
2023-05-13T06:07:48.752Z,99.90
2023-05-13T06:10:17.568Z,99.90
2023-05-13T06:12:46.776Z,99.90
2023-05-13T06:15:15.090Z,99.90
2023-05-13T06:17:46.207Z,99.90
2023-05-13T06:20:14.600Z,99.90
2023-05-13T06:22:44.240Z,99.90
2023-05-13T06:25:12.571Z,99.90
2023-05-13T06:27:42.419Z,99.90
2023-05-13T06:30:11.216Z,99.90
2023-05-13T06:32:53.410Z,99.90
2023-05-13T06:35:25.914Z,99.90
2023-05-13T06:37:55.628Z,99.90
2023-05-13T06:40:24.095Z,99.90
2023-05-13T06:42:52.988Z,99.90
2023-05-13T06:45:25.842Z,99.90
2023-05-13T06:47:54.987Z,99.90
2023-05-13T06:50:23.540Z,99.90
2023-05-13T06:52:52.161Z,99.90
2023-05-13T06:55:21.938Z,99.90
2023-05-13T06:57:50.481Z,99.90
2023-05-13T07:00:19.398Z,99.90
2023-05-13T07:02:48.021Z,99.90
2023-05-13T07:05:16.280Z,99.90
2023-05-13T07:07:44.616Z,99.90
2023-05-13T07:10:12.923Z,99.90
2023-05-13T07:12:42.722Z,99.90
2023-05-13T07:15:11.613Z,99.90
2023-05-13T07:17:40.681Z,99.90
2023-05-13T07:20:09.966Z,99.90
2023-05-13T07:22:38.253Z,99.90
2023-05-13T07:25:07.524Z,99.90
2023-05-13T07:27:35.847Z,99.90
2023-05-13T07:30:06.125Z,99.90
2023-05-13T07:32:35.863Z,99.90
2023-05-13T07:35:04.735Z,99.90
2023-05-13T07:37:33.202Z,99.90
2023-05-13T07:40:01.450Z,99.90
2023-05-13T07:42:30.459Z,99.90
2023-05-13T07:44:58.724Z,85.00
2023-05-13T07:47:29.076Z,84.30
2023-05-13T07:49:57.896Z,66.30
2023-05-13T07:52:26.502Z,69.30
2023-05-13T07:54:55.528Z,53.50
2023-05-13T07:57:23.896Z,41.80
2023-05-13T07:59:52.741Z,44.10
2023-05-13T08:02:21.550Z,67.10
2023-05-13T08:04:51.385Z,97.40
2023-05-13T08:07:19.818Z,99.90
2023-05-13T08:09:48.807Z,99.90
2023-05-13T08:12:17.835Z,99.90
2023-05-13T08:14:48.270Z,99.90
2023-05-13T08:17:18.152Z,99.90
2023-05-13T08:19:46.481Z,99.90
2023-05-13T08:22:16.298Z,99.90
2023-05-13T08:24:44.560Z,99.90
2023-05-13T08:27:13.322Z,99.90
2023-05-13T08:29:41.761Z,99.90
2023-05-13T08:32:10.306Z,99.90
2023-05-13T08:34:38.601Z,99.90
2023-05-13T08:37:07.086Z,99.90
2023-05-13T08:39:36.715Z,99.90
2023-05-13T08:42:06.188Z,99.90
2023-05-13T08:44:39.878Z,99.90
2023-05-13T08:47:18.335Z,99.90
2023-05-13T08:49:47.668Z,99.90
2023-05-13T08:52:16.443Z,99.90
2023-05-13T08:54:47.389Z,99.70
2023-05-13T08:57:15.823Z,96.50
2023-05-13T08:59:44.260Z,99.90
2023-05-13T09:02:13.303Z,96.80
2023-05-13T09:04:42.338Z,71.10
2023-05-13T09:07:11.455Z,59.60
2023-05-13T09:09:39.737Z,30.90
2023-05-13T09:12:09.910Z,12.80
2023-05-13T09:14:39.949Z,1.80
2023-05-13T09:17:08.567Z,1.00
2023-05-13T09:19:37.287Z,26.90
2023-05-13T09:22:05.667Z,28.10
2023-05-13T09:24:34.025Z,14.20
2023-05-13T09:27:02.374Z,19.10
2023-05-13T09:29:31.946Z,1.40
2023-05-13T09:32:02.066Z,1.00
2023-05-13T09:34:31.946Z,1.00
2023-05-13T09:37:03.163Z,1.00
2023-05-13T09:39:34.194Z,1.00
2023-05-13T09:42:05.223Z,1.00
2023-05-13T09:44:35.601Z,1.00
2023-05-13T09:47:04.458Z,1.00
2023-05-13T09:49:33.048Z,1.00
2023-05-13T09:52:01.552Z,1.00
2023-05-13T09:54:36.080Z,1.00
2023-05-13T09:57:05.662Z,1.00
2023-05-13T09:59:35.652Z,1.00
2023-05-13T10:02:07.479Z,1.00
2023-05-13T10:04:35.879Z,1.00
2023-05-13T10:07:05.400Z,1.00
2023-05-13T10:09:37.313Z,1.00
2023-05-13T10:12:08.708Z,1.00
2023-05-13T10:14:39.385Z,1.00
2023-05-13T10:17:10.022Z,1.00
2023-05-13T10:19:38.855Z,1.00
2023-05-13T10:22:08.042Z,1.00
2023-05-13T10:24:38.771Z,1.00
2023-05-13T10:27:09.049Z,1.00
2023-05-13T10:29:40.499Z,1.00
2023-05-13T10:32:10.685Z,1.00
2023-05-13T10:34:40.415Z,1.00
2023-05-13T10:37:23.827Z,99.90
2023-05-13T10:40:07.546Z,1.00
2023-05-13T10:42:42.656Z,1.00
2023-05-13T10:45:12.733Z,99.90
2023-05-13T10:47:41.579Z,1.00
2023-05-13T10:50:25.075Z,99.90
2023-05-13T10:52:57.537Z,99.90
2023-05-13T10:55:28.090Z,99.90
2023-05-13T10:58:10.806Z,99.90
2023-05-13T11:00:41.459Z,99.90
2023-05-13T11:03:11.683Z,99.90
2023-05-13T11:05:41.609Z,1.00
2023-05-13T11:08:14.345Z,49.10
2023-05-13T11:11:34.114Z,1.00
2023-05-13T11:14:16.848Z,99.90
2023-05-13T11:19:38.314Z,99.90
2023-05-13T11:22:11.307Z,99.90
2023-05-13T11:24:40.156Z,99.90
2023-05-13T11:27:16.264Z,99.90
2023-05-13T11:29:50.679Z,99.90
2023-05-13T11:32:53.636Z,21.50
2023-05-13T11:35:23.100Z,1.00
2023-05-13T11:37:51.604Z,1.00
2023-05-13T11:40:24.157Z,99.90
2023-05-13T11:42:54.105Z,1.00
2023-05-13T11:45:24.005Z,28.90
2023-05-13T11:47:55.222Z,1.00
2023-05-13T11:50:24.981Z,1.00
2023-05-13T11:52:55.016Z,99.90
2023-05-13T11:55:28.047Z,70.10
2023-05-13T11:57:57.302Z,1.00
2023-05-13T12:00:27.279Z,1.00
2023-05-13T12:02:57.426Z,32.20
2023-05-13T12:05:27.519Z,1.00
2023-05-13T12:07:58.569Z,99.90
2023-05-13T12:10:28.132Z,99.90
2023-05-13T12:12:57.102Z,1.00
2023-05-13T12:15:25.660Z,1.00
2023-05-13T12:17:58.057Z,1.00
2023-05-13T12:20:26.747Z,1.00
2023-05-13T12:22:57.758Z,99.90
2023-05-13T12:25:38.222Z,1.00
2023-05-13T12:28:17.426Z,1.00
2023-05-13T12:30:52.656Z,1.00
2023-05-13T12:33:23.509Z,1.00
2023-05-13T12:35:53.645Z,90.90
2023-05-13T12:38:23.948Z,99.90
2023-05-13T12:40:54.689Z,99.90
2023-05-13T12:43:23.896Z,99.90
2023-05-13T12:45:57.298Z,99.90
2023-05-13T12:48:35.602Z,99.90
2023-05-13T12:51:03.912Z,99.90
2023-05-13T12:53:32.175Z,99.90
2023-05-13T12:56:00.809Z,99.90
2023-05-13T12:58:29.271Z,99.90
2023-05-13T13:00:57.617Z,99.90
2023-05-13T13:03:25.981Z,99.90
2023-05-13T13:05:55.661Z,99.90
2023-05-13T13:08:23.971Z,99.90
2023-05-13T13:10:53.005Z,99.90
2023-05-13T13:13:21.610Z,99.90
2023-05-13T13:15:50.131Z,91.10
2023-05-13T13:18:19.665Z,90.40
2023-05-13T13:20:48.098Z,92.70
2023-05-13T13:23:17.771Z,99.90
2023-05-13T13:25:46.185Z,95.70
2023-05-13T13:28:14.446Z,98.30
2023-05-13T13:30:46.486Z,99.90
2023-05-13T13:33:16.065Z,99.90
2023-05-13T13:35:45.307Z,99.90
2023-05-13T13:38:15.074Z,99.90
2023-05-13T13:40:44.718Z,86.70
2023-05-13T13:43:13.029Z,79.30
2023-05-13T13:45:41.380Z,93.10
2023-05-13T13:48:09.892Z,96.40
2023-05-13T13:53:40.467Z,99.90
2023-05-13T13:56:10.414Z,99.90
2023-05-13T13:58:40.454Z,99.90
2023-05-13T14:01:08.903Z,99.90
2023-05-13T14:03:37.699Z,13.80
2023-05-13T14:06:06.787Z,1.00
2023-05-13T14:08:35.103Z,1.00
2023-05-13T14:11:03.551Z,1.00
2023-05-13T14:13:33.374Z,1.00
2023-05-13T14:16:04.394Z,1.00
2023-05-13T14:18:32.966Z,99.90
2023-05-13T14:21:01.248Z,99.90
2023-05-13T14:23:29.754Z,99.90
2023-05-13T14:25:58.064Z,99.90
2023-05-13T14:28:26.525Z,99.90
2023-05-13T14:30:56.078Z,99.90
2023-05-13T14:33:24.515Z,99.90
2023-05-13T14:35:52.971Z,1.00
2023-05-13T14:38:21.403Z,12.90
2023-05-13T14:40:49.801Z,99.90
2023-05-13T14:43:18.170Z,1.00
2023-05-13T14:45:48.906Z,99.90
2023-05-13T14:48:20.350Z,15.30
2023-05-13T14:50:48.709Z,1.00
2023-05-13T14:53:17.053Z,99.90
2023-05-13T14:55:45.350Z,99.90
2023-05-13T14:58:13.843Z,1.00
2023-05-13T15:00:42.335Z,99.90
2023-05-13T15:03:13.866Z,99.90
2023-05-13T15:05:44.269Z,99.90
2023-05-13T15:08:13.831Z,99.90
2023-05-13T15:10:42.183Z,99.90
2023-05-13T15:13:10.889Z,1.00
2023-05-13T15:15:39.363Z,1.00
2023-05-13T15:18:07.896Z,31.10
2023-05-13T15:20:36.280Z,62.20
2023-05-13T15:23:06.243Z,1.00
2023-05-13T15:25:34.760Z,99.90
2023-05-13T15:28:03.218Z,1.00
2023-05-13T15:30:31.576Z,99.90
2023-05-13T15:33:00.180Z,68.00
2023-05-13T15:35:28.651Z,99.90
2023-05-13T15:37:57.540Z,99.90
2023-05-13T15:40:27.168Z,99.90
2023-05-13T15:42:56.291Z,1.00
2023-05-13T15:45:24.730Z,33.70
2023-05-13T15:47:53.646Z,1.00
2023-05-13T15:50:22.491Z,99.90
2023-05-13T15:52:51.150Z,99.90
2023-05-13T15:55:19.615Z,11.30
2023-05-13T15:57:50.422Z,99.90
2023-05-13T16:00:20.000Z,99.90
2023-05-13T16:02:48.520Z,99.90
2023-05-13T16:05:19.183Z,1.00
2023-05-13T16:07:47.702Z,97.20
2023-05-13T16:10:16.320Z,99.90
2023-05-13T16:12:44.736Z,1.00
2023-05-13T16:15:14.483Z,99.90
2023-05-13T16:17:43.406Z,1.00
2023-05-13T16:20:12.324Z,99.90
2023-05-13T16:22:40.820Z,1.00
2023-05-13T16:25:11.746Z,1.00
2023-05-13T16:27:42.849Z,99.90
2023-05-13T16:30:12.251Z,1.00
2023-05-13T16:32:42.780Z,1.00
2023-05-13T16:35:12.635Z,1.00
2023-05-13T16:37:41.112Z,99.90
2023-05-13T16:40:10.546Z,99.90
2023-05-13T16:42:40.365Z,1.00
2023-05-13T16:45:09.821Z,99.90
2023-05-13T16:47:38.397Z,99.90
2023-05-13T16:50:09.346Z,1.00
2023-05-13T16:52:38.097Z,99.90
2023-05-13T16:55:07.207Z,1.00
2023-05-13T16:57:35.807Z,99.90
2023-05-13T17:00:04.594Z,1.00
2023-05-13T17:02:34.654Z,99.90
2023-05-13T17:05:04.107Z,99.90
2023-05-13T17:07:34.302Z,99.90
2023-05-13T17:10:03.061Z,1.00
2023-05-13T17:12:31.467Z,1.00
2023-05-13T17:14:59.809Z,99.90
2023-05-13T17:17:28.433Z,99.90
2023-05-13T17:19:57.551Z,1.00
2023-05-13T17:22:28.552Z,1.00
2023-05-13T17:24:58.348Z,93.50
2023-05-13T17:27:26.764Z,99.90
2023-05-13T17:29:55.228Z,99.90
2023-05-13T17:32:23.644Z,99.90
2023-05-13T17:34:52.154Z,99.90
2023-05-13T17:37:20.634Z,1.00
2023-05-13T17:39:50.253Z,1.00
2023-05-13T17:42:20.030Z,1.00
2023-05-13T17:44:48.562Z,1.00
2023-05-13T17:47:17.137Z,1.00
2023-05-13T17:49:45.545Z,1.00
2023-05-13T17:52:14.071Z,1.00
2023-05-13T17:54:42.559Z,5.80
2023-05-13T17:57:11.261Z,28.50
2023-05-13T17:59:41.048Z,47.00
2023-05-13T18:02:11.917Z,55.60
2023-05-13T18:04:41.011Z,65.00
2023-05-13T18:07:10.398Z,78.90
2023-05-13T18:09:39.131Z,60.90
2023-05-13T18:12:10.792Z,68.60
2023-05-13T18:14:40.727Z,64.50
2023-05-13T18:17:09.342Z,71.90
2023-05-13T18:19:37.739Z,84.70
2023-05-13T18:22:08.582Z,84.30
2023-05-13T18:24:37.333Z,82.70
2023-05-13T18:27:06.199Z,88.20
2023-05-13T18:29:34.654Z,94.10
2023-05-13T18:32:04.912Z,95.40
2023-05-13T18:34:34.100Z,98.80
2023-05-13T18:37:02.458Z,99.90
2023-05-13T18:39:32.619Z,99.90
2023-05-13T18:42:01.030Z,99.90
2023-05-13T18:44:30.498Z,99.90
2023-05-13T18:46:58.801Z,99.90
2023-05-13T18:49:29.426Z,99.90
2023-05-13T18:51:57.800Z,99.90
2023-05-13T18:54:27.914Z,99.90
2023-05-13T18:56:56.713Z,99.90
2023-05-13T18:59:25.166Z,99.90
2023-05-13T19:01:54.955Z,99.90
2023-05-13T19:04:24.882Z,99.90
2023-05-13T19:06:54.938Z,99.90
2023-05-13T19:09:23.301Z,99.90
2023-05-13T19:11:51.714Z,99.90
2023-05-13T19:14:20.121Z,99.90
2023-05-13T19:16:48.904Z,99.90
2023-05-13T19:19:17.478Z,99.90
2023-05-13T19:21:45.904Z,99.90
2023-05-13T19:24:15.654Z,99.90
2023-05-13T19:26:44.067Z,99.90
2023-05-13T19:29:12.663Z,99.90
2023-05-13T19:31:41.110Z,99.90
2023-05-13T19:34:10.832Z,99.90
2023-05-13T19:36:39.506Z,99.90
2023-05-13T19:39:08.156Z,99.90
2023-05-13T19:41:38.439Z,99.90
2023-05-13T19:44:07.223Z,99.90
2023-05-13T19:46:35.793Z,99.90
2023-05-13T19:49:04.202Z,99.90
2023-05-13T19:51:32.619Z,99.90
2023-05-13T19:54:01.671Z,99.90
2023-05-13T19:56:30.029Z,99.90
2023-05-13T19:59:00.035Z,99.90
2023-05-13T20:01:28.532Z,99.90
2023-05-13T20:03:57.239Z,99.90
2023-05-13T20:06:25.831Z,99.90
2023-05-13T20:08:54.082Z,99.90
2023-05-13T20:11:23.012Z,99.90
2023-05-13T20:13:51.348Z,99.90
2023-05-13T20:16:22.120Z,99.90
2023-05-13T20:18:50.571Z,99.90
2023-05-13T20:21:18.924Z,99.90
2023-05-13T20:23:47.285Z,99.90
2023-05-13T20:26:17.214Z,99.90
2023-05-13T20:28:47.643Z,99.90
2023-05-13T20:31:16.189Z,99.90
2023-05-13T20:33:45.902Z,99.90
2023-05-13T20:36:14.126Z,99.90
2023-05-13T20:38:42.482Z,99.90
2023-05-13T20:41:11.203Z,99.90
2023-05-13T20:43:39.551Z,99.90
2023-05-13T20:46:33.271Z,99.90
2023-05-13T20:49:03.148Z,99.90
2023-05-13T20:51:31.469Z,99.90
2023-05-13T20:53:59.954Z,99.90
2023-05-13T20:56:28.321Z,99.90
2023-05-13T20:58:56.697Z,99.90
2023-05-13T21:01:26.643Z,99.90
2023-05-13T21:03:55.916Z,99.90
2023-05-13T21:06:26.358Z,99.90
2023-05-13T21:08:54.587Z,99.90
2023-05-13T21:11:22.848Z,99.90
2023-05-13T21:13:52.717Z,99.90
2023-05-13T21:16:21.178Z,99.90
2023-05-13T21:18:49.622Z,99.90
2023-05-13T21:21:17.919Z,99.90
2023-05-13T21:23:48.631Z,99.90
2023-05-13T21:26:16.943Z,99.90
2023-05-13T21:28:45.275Z,99.90
2023-05-13T21:31:13.663Z,99.90
2023-05-13T21:33:42.167Z,99.90
2023-05-13T21:36:10.753Z,99.90
2023-05-13T21:38:39.585Z,99.90
2023-05-13T21:41:09.354Z,99.90
2023-05-13T21:43:37.655Z,99.90
2023-05-13T21:46:06.533Z,99.90
2023-05-13T21:48:34.915Z,99.90
2023-05-13T21:51:03.206Z,99.90
2023-05-13T21:53:31.573Z,99.90
2023-05-13T21:56:00.185Z,99.90
2023-05-13T21:58:29.829Z,99.90
2023-05-13T22:00:59.914Z,99.90
2023-05-13T22:03:28.301Z,99.90
2023-05-13T22:05:56.582Z,99.90
2023-05-13T22:08:24.904Z,99.90
2023-05-13T22:10:53.266Z,99.90
2023-05-13T22:13:22.736Z,99.90
2023-05-13T22:15:52.898Z,99.90
2023-05-13T22:18:22.565Z,99.90
2023-05-13T22:20:51.223Z,99.90
2023-05-13T22:23:19.642Z,99.90
2023-05-13T22:25:47.893Z,99.90
2023-05-13T22:28:16.300Z,99.90
2023-05-13T22:30:45.828Z,99.90
2023-05-13T22:33:15.646Z,99.90
2023-05-13T22:35:44.100Z,99.90
2023-05-13T22:38:12.660Z,99.90
2023-05-13T22:40:40.898Z,99.90
2023-05-13T22:43:09.231Z,99.90
2023-05-13T22:45:37.953Z,99.90
2023-05-13T22:48:06.645Z,99.90
2023-05-13T22:50:36.190Z,99.90
2023-05-13T22:53:04.468Z,99.90
2023-05-13T22:55:32.698Z,99.90
2023-05-13T22:58:01.191Z,99.90
2023-05-13T23:00:29.440Z,99.90
2023-05-13T23:02:58.189Z,99.90
2023-05-13T23:05:26.467Z,99.90
2023-05-13T23:07:56.131Z,99.90
2023-05-13T23:10:24.515Z,99.90
2023-05-13T23:12:53.115Z,99.90
2023-05-13T23:15:21.316Z,99.90
2023-05-13T23:17:49.781Z,99.90
2023-05-13T23:20:18.329Z,99.90
2023-05-13T23:22:49.444Z,99.90
2023-05-13T23:25:19.259Z,99.90
2023-05-13T23:27:47.572Z,99.90
2023-05-13T23:30:16.562Z,99.90
2023-05-13T23:32:44.897Z,99.90
2023-05-13T23:35:13.775Z,99.90
2023-05-13T23:37:42.139Z,99.90
2023-05-13T23:40:10.967Z,99.90
2023-05-13T23:42:41.852Z,99.90
2023-05-13T23:45:11.487Z,99.90
2023-05-13T23:47:39.878Z,99.90
2023-05-13T23:50:09.097Z,99.90
2023-05-13T23:52:37.739Z,99.90
2023-05-13T23:55:06.879Z,99.90
2023-05-13T23:57:35.460Z,99.90
